createdAt,value
2018-12-01T00:01:38.305Z,100604.69
2018-12-01T00:04:14.775Z,100604.20
2018-12-01T00:06:48.641Z,100610.84
2018-12-01T00:13:11.349Z,100612.48
2018-12-01T00:15:42.852Z,100607.03
2018-12-01T00:18:19.357Z,100609.52
2018-12-01T00:20:52.693Z,100599.05
2018-12-01T00:23:25.670Z,100602.20
2018-12-01T00:26:17.045Z,100605.84
2018-12-01T00:29:08.881Z,100605.03
2018-12-01T00:31:40.566Z,100611.81
2018-12-01T00:34:13.305Z,100611.31
2018-12-01T00:36:46.124Z,100609.52
2018-12-01T00:39:15.798Z,100608.85
2018-12-01T00:41:53.690Z,100608.19
2018-12-01T00:44:34.500Z,100617.49
2018-12-01T00:47:04.948Z,100618.16
2018-12-01T00:49:34.140Z,100623.30
2018-12-01T00:52:13.438Z,100619.31
2018-12-01T00:54:47.646Z,100623.28
2018-12-01T00:57:16.954Z,100624.79
2018-12-01T00:59:47.312Z,100626.44
2018-12-01T01:02:24.263Z,100629.94
2018-12-01T01:04:54.422Z,100620.14
2018-12-01T01:07:23.856Z,100626.80
2018-12-01T01:09:58.008Z,100628.78
2018-12-01T01:12:30.685Z,100625.61
2018-12-01T01:14:58.747Z,100628.27
2018-12-01T01:17:27.434Z,100623.65
2018-12-01T01:19:59.440Z,100620.32
2018-12-01T01:22:30.091Z,100620.98
2018-12-01T01:25:01.546Z,100625.11
2018-12-01T01:27:31.517Z,100627.11
2018-12-01T01:30:02.748Z,100631.27
2018-12-01T01:32:32.539Z,100638.58
2018-12-01T01:35:04.472Z,100640.92
2018-12-01T01:37:40.780Z,100640.92
2018-12-01T01:40:14.769Z,100641.91
2018-12-01T01:42:48.616Z,100650.72
2018-12-01T01:45:26.244Z,100647.40
2018-12-01T01:47:57.929Z,100646.55
2018-12-01T01:50:27.660Z,100648.89
2018-12-01T01:52:55.754Z,100652.22
2018-12-01T01:55:23.833Z,100649.39
2018-12-01T01:57:51.919Z,100641.06
2018-12-01T02:00:21.096Z,100646.56
2018-12-01T02:02:49.949Z,100641.73
2018-12-01T02:05:19.186Z,100642.92
2018-12-01T02:07:47.326Z,100635.75
2018-12-01T02:10:16.338Z,100643.72
2018-12-01T02:12:44.422Z,100641.72
2018-12-01T02:15:13.074Z,100641.23
2018-12-01T02:17:41.233Z,100634.25
2018-12-01T02:20:10.698Z,100636.39
2018-12-01T02:22:38.779Z,100640.06
2018-12-01T02:25:08.259Z,100635.25
2018-12-01T02:27:36.348Z,100633.27
2018-12-01T02:30:06.871Z,100633.08
2018-12-01T02:32:35.023Z,100625.38
2018-12-01T02:35:03.141Z,100634.19
2018-12-01T02:37:31.260Z,100632.70
2018-12-01T02:39:59.351Z,100623.25
2018-12-01T02:42:27.474Z,100619.06
2018-12-01T02:45:07.556Z,100609.43
2018-12-01T02:47:35.738Z,100607.09
2018-12-01T02:50:05.299Z,100598.30
2018-12-01T02:52:33.430Z,100602.01
2018-12-01T02:55:01.534Z,100602.98
2018-12-01T02:57:29.641Z,100601.00
2018-12-01T02:59:57.743Z,100604.48
2018-12-01T03:02:25.868Z,100611.97
2018-12-01T03:04:54.059Z,100606.47
2018-12-01T03:07:22.181Z,100602.92
2018-12-01T03:09:50.281Z,100609.86
2018-12-01T03:12:18.438Z,100613.31
2018-12-01T03:14:46.614Z,100614.02
2018-12-01T03:17:14.733Z,100607.70
2018-12-01T03:19:42.817Z,100614.66
2018-12-01T03:22:10.917Z,100614.05
2018-12-01T03:24:39.017Z,100607.28
2018-12-01T03:27:07.138Z,100615.75
2018-12-01T03:29:35.226Z,100612.23
2018-12-01T03:32:03.328Z,100615.84
2018-12-01T03:34:31.377Z,100610.50
2018-12-01T03:36:59.453Z,100619.80
2018-12-01T03:39:27.569Z,100622.59
2018-12-01T03:41:55.656Z,100628.27
2018-12-01T03:44:23.746Z,100628.94
2018-12-01T03:46:51.872Z,100629.58
2018-12-01T03:49:20.006Z,100638.95
2018-12-01T03:51:48.117Z,100636.92
2018-12-01T03:54:16.230Z,100637.75
2018-12-01T03:56:44.419Z,100643.61
2018-12-01T03:59:12.563Z,100643.11
2018-12-01T04:01:40.741Z,100649.09
2018-12-01T04:04:08.925Z,100636.55
2018-12-01T04:06:37.085Z,100642.98
2018-12-01T04:09:13.262Z,100643.66
2018-12-01T04:11:42.074Z,100651.41
2018-12-01T04:14:10.245Z,100651.66
2018-12-01T04:16:38.431Z,100649.47
2018-12-01T04:19:06.548Z,100656.22
2018-12-01T04:21:34.652Z,100650.89
2018-12-01T04:24:02.808Z,100648.07
2018-12-01T04:26:30.953Z,100652.89
2018-12-01T04:28:59.080Z,100639.93
2018-12-01T04:31:27.145Z,100639.39
2018-12-01T04:33:55.229Z,100639.30
2018-12-01T04:36:23.311Z,100646.17
2018-12-01T04:38:51.412Z,100642.23
2018-12-01T04:41:19.497Z,100644.98
2018-12-01T04:43:47.572Z,100644.20
2018-12-01T04:46:15.653Z,100649.27
2018-12-01T04:48:43.773Z,100650.70
2018-12-01T04:51:11.874Z,100653.70
2018-12-01T04:53:39.947Z,100658.33
2018-12-01T04:56:08.047Z,100657.92
2018-12-01T04:58:36.130Z,100660.06
2018-12-01T05:01:04.220Z,100662.37
2018-12-01T05:03:32.319Z,100664.39
2018-12-01T05:06:00.535Z,100662.17
2018-12-01T05:08:28.693Z,100664.37
2018-12-01T05:10:56.974Z,100660.84
2018-12-01T05:13:25.125Z,100662.88
2018-12-01T05:15:53.238Z,100668.08
2018-12-01T05:18:21.359Z,100670.48
2018-12-01T05:20:49.477Z,100671.05
2018-12-01T05:23:17.570Z,100676.38
2018-12-01T05:25:45.690Z,100678.49
2018-12-01T05:28:13.810Z,100682.96
2018-12-01T05:30:41.933Z,100680.66
2018-12-01T05:33:10.025Z,100670.23
2018-12-01T05:35:38.118Z,100677.70
2018-12-01T05:38:06.265Z,100688.51
2018-12-01T05:40:34.357Z,100686.88
2018-12-01T05:43:02.435Z,100696.22
2018-12-01T05:48:05.246Z,100689.19
2018-12-01T05:50:33.373Z,100687.61
2018-12-01T05:53:01.491Z,100686.70
2018-12-01T05:55:29.621Z,100693.46
2018-12-01T05:57:57.746Z,100690.48
2018-12-01T06:00:25.858Z,100690.50
2018-12-01T06:02:53.976Z,100690.03
2018-12-01T06:05:22.130Z,100692.09
2018-12-01T06:07:50.285Z,100691.27
2018-12-01T06:10:19.404Z,100699.73
2018-12-01T06:12:48.200Z,100705.23
2018-12-01T06:15:16.974Z,100704.77
2018-12-01T06:17:45.082Z,100697.55
2018-12-01T06:20:14.369Z,100695.44
2018-12-01T06:22:42.473Z,100685.83
2018-12-01T06:25:19.285Z,100697.19
2018-12-01T06:27:47.401Z,100697.27
2018-12-01T06:30:17.449Z,100695.55
2018-12-01T06:32:46.202Z,100692.55
2018-12-01T06:35:14.372Z,100690.73
2018-12-01T06:37:42.498Z,100697.52
2018-12-01T06:40:16.454Z,100700.23
2018-12-01T06:42:44.605Z,100704.60
2018-12-01T06:45:13.398Z,100704.72
2018-12-01T06:47:41.598Z,100708.02
2018-12-01T06:50:10.876Z,100706.62
2018-12-01T06:52:39.036Z,100712.98
2018-12-01T06:55:08.437Z,100715.44
2018-12-01T06:57:36.537Z,100714.90
2018-12-01T07:00:07.569Z,100715.08
2018-12-01T07:02:35.673Z,100712.03
2018-12-01T07:05:03.778Z,100711.14
2018-12-01T07:07:31.879Z,100715.31
2018-12-01T07:09:59.971Z,100724.27
2018-12-01T07:12:28.122Z,100724.08
2018-12-01T07:14:56.400Z,100732.20
2018-12-01T07:17:24.494Z,100733.30
2018-12-01T07:19:52.601Z,100735.87
2018-12-01T07:22:20.761Z,100736.12
2018-12-01T07:24:48.882Z,100732.84
2018-12-01T07:27:16.994Z,100728.38
2018-12-01T07:29:45.099Z,100721.45
2018-12-01T07:32:13.286Z,100718.69
2018-12-01T07:34:41.418Z,100719.99
2018-12-01T07:37:09.526Z,100721.10
2018-12-01T07:39:38.261Z,100726.67
2018-12-01T07:42:06.502Z,100719.04
2018-12-01T07:44:34.760Z,100720.59
2018-12-01T07:47:02.929Z,100720.14
2018-12-01T07:49:31.306Z,100719.99
2018-12-01T07:52:02.418Z,100720.48
2018-12-01T07:54:31.039Z,100717.94
2018-12-01T07:57:00.501Z,100709.08
2018-12-01T07:59:28.649Z,100716.17
2018-12-01T08:01:56.763Z,100712.77
2018-12-01T08:04:24.929Z,100713.22
2018-12-01T08:06:53.794Z,100715.84
2018-12-01T08:09:21.914Z,100714.38
2018-12-01T08:14:27.351Z,100691.64
2018-12-01T08:16:55.468Z,100687.02
2018-12-01T08:19:23.651Z,100690.16
2018-12-01T08:21:51.779Z,100694.52
2018-12-01T08:24:19.892Z,100689.81
2018-12-01T08:26:48.045Z,100699.77
2018-12-01T08:29:16.161Z,100696.04
2018-12-01T08:31:44.266Z,100694.09
2018-12-01T08:34:12.378Z,100694.75
2018-12-01T08:36:40.445Z,100699.92
2018-12-01T08:39:09.025Z,100696.66
2018-12-01T08:41:43.634Z,100688.99
2018-12-01T08:46:58.059Z,100695.10
2018-12-01T08:49:38.161Z,100693.41
2018-12-01T08:52:18.260Z,100686.68
2018-12-01T08:54:56.367Z,100693.02
2018-12-01T08:57:32.423Z,100697.34
2018-12-01T09:00:08.115Z,100698.39
2018-12-01T09:03:01.597Z,100701.07
2018-12-01T09:05:35.868Z,100712.37
2018-12-01T09:08:10.036Z,100711.89
2018-12-01T09:10:41.645Z,100713.56
2018-12-01T09:13:16.153Z,100712.91
2018-12-01T09:15:52.173Z,100718.53
2018-12-01T09:18:32.656Z,100716.22
2018-12-01T09:21:34.143Z,100712.38
2018-12-01T09:26:52.097Z,100712.53
2018-12-01T09:29:23.818Z,100714.53
2018-12-01T09:31:54.548Z,100713.55
2018-12-01T09:34:22.657Z,100704.41
2018-12-01T09:36:50.822Z,100698.03
2018-12-01T09:39:18.926Z,100701.36
2018-12-01T09:41:47.037Z,100696.55
2018-12-01T09:44:15.109Z,100696.55
2018-12-01T09:46:43.199Z,100694.17
2018-12-01T09:49:11.287Z,100699.67
2018-12-01T09:51:39.369Z,100700.33
2018-12-01T09:54:07.529Z,100703.83
2018-12-01T09:56:35.619Z,100708.13
2018-12-01T09:59:03.693Z,100705.45
2018-12-01T10:01:31.786Z,100704.63
2018-12-01T10:03:59.834Z,100707.39
2018-12-01T10:06:27.925Z,100704.73
2018-12-01T10:08:56.013Z,100701.44
2018-12-01T10:11:24.149Z,100695.96
2018-12-01T10:13:52.215Z,100694.81
2018-12-01T10:16:20.290Z,100684.83
2018-12-01T10:18:48.371Z,100679.48
2018-12-01T10:21:17.298Z,100684.14
2018-12-01T10:23:45.590Z,100681.33
2018-12-01T10:26:14.537Z,100682.75
2018-12-01T10:28:42.648Z,100681.75
2018-12-01T10:31:10.735Z,100678.67
2018-12-01T10:33:38.813Z,100677.02
2018-12-01T10:36:06.901Z,100675.38
2018-12-01T10:38:35.127Z,100678.59
2018-12-01T10:41:03.190Z,100673.78
2018-12-01T10:43:32.257Z,100683.20
2018-12-01T10:46:00.504Z,100666.15
2018-12-01T10:48:28.595Z,100668.32
2018-12-01T10:50:56.675Z,100665.19
2018-12-01T10:53:24.777Z,100669.49
2018-12-01T10:55:53.994Z,100664.92
2018-12-01T10:58:22.198Z,100669.76
2018-12-01T11:00:56.558Z,100673.34
2018-12-01T11:03:31.678Z,100673.08
2018-12-01T11:06:00.927Z,100677.44
2018-12-01T11:08:29.035Z,100667.61
2018-12-01T11:10:57.211Z,100665.78
2018-12-01T11:13:25.541Z,100664.01
2018-12-01T11:15:53.734Z,100653.86
2018-12-01T11:18:22.074Z,100644.80
2018-12-01T11:20:50.226Z,100645.55
2018-12-01T11:23:18.387Z,100637.45
2018-12-01T11:25:46.548Z,100629.77
2018-12-01T11:28:14.635Z,100619.05
2018-12-01T11:30:43.329Z,100615.11
2018-12-01T11:33:11.498Z,100610.86
2018-12-01T11:35:39.653Z,100614.75
2018-12-01T11:38:08.200Z,100616.53
2018-12-01T11:40:36.377Z,100606.27
2018-12-01T11:43:05.721Z,100603.71
2018-12-01T11:45:33.887Z,100596.77
2018-12-01T11:48:02.149Z,100594.44
2018-12-01T11:50:30.318Z,100588.25
2018-12-01T11:52:58.431Z,100587.67
2018-12-01T11:55:26.568Z,100589.01
2018-12-01T11:57:54.846Z,100583.72
2018-12-01T12:00:25.231Z,100585.79
2018-12-01T12:02:53.376Z,100583.31
2018-12-01T12:05:21.499Z,100574.16
2018-12-01T12:08:00.975Z,100573.42
2018-12-01T12:10:29.281Z,100582.62
2018-12-01T12:12:57.383Z,100577.52
2018-12-01T12:15:26.439Z,100569.37
2018-12-01T12:17:58.553Z,100574.66
2018-12-01T12:20:26.662Z,100564.02
2018-12-01T12:22:55.001Z,100559.97
2018-12-01T12:25:23.120Z,100563.92
2018-12-01T12:27:51.247Z,100560.33
2018-12-01T12:30:23.391Z,100562.84
2018-12-01T12:32:48.386Z,100560.66
2018-12-01T12:35:17.363Z,100556.36
2018-12-01T12:37:45.506Z,100550.23
2018-12-01T12:40:26.194Z,100552.97
2018-12-01T12:42:58.258Z,100551.19
2018-12-01T12:45:26.414Z,100544.76
2018-12-01T12:47:54.577Z,100540.33
2018-12-01T12:50:22.731Z,100531.03
2018-12-01T12:52:54.745Z,100532.17
2018-12-01T12:55:25.393Z,100524.55
2018-12-01T12:57:53.578Z,100529.62
2018-12-01T13:00:24.533Z,100524.28
2018-12-01T13:02:54.961Z,100527.17
2018-12-01T13:05:26.539Z,100523.93
2018-12-01T13:07:54.614Z,100522.23
2018-12-01T13:10:23.594Z,100517.34
2018-12-01T13:12:51.876Z,100510.30
2018-12-01T13:15:19.835Z,100504.06
2018-12-01T13:17:48.052Z,100502.89
2018-12-01T13:20:19.069Z,100498.09
2018-12-01T13:22:51.234Z,100503.77
2018-12-01T13:25:19.501Z,100498.06
2018-12-01T13:27:51.264Z,100491.58
2018-12-01T13:30:21.927Z,100489.41
2018-12-01T13:32:50.103Z,100488.54
2018-12-01T13:35:18.243Z,100493.02
2018-12-01T13:37:46.983Z,100486.78
2018-12-01T13:40:15.984Z,100497.95
2018-12-01T13:42:44.750Z,100488.41
2018-12-01T13:45:14.855Z,100486.27
2018-12-01T13:47:43.027Z,100489.69
2018-12-01T13:50:13.237Z,100493.50
2018-12-01T13:52:41.503Z,100493.55
2018-12-01T13:55:09.986Z,100487.52
2018-12-01T13:57:38.202Z,100485.06
2018-12-01T14:00:15.110Z,100481.34
2018-12-01T14:02:43.190Z,100478.48
2018-12-01T14:05:11.972Z,100476.83
2018-12-01T14:07:40.145Z,100473.04
2018-12-01T14:10:25.813Z,100473.20
2018-12-01T14:12:56.182Z,100476.47
2018-12-01T14:15:24.408Z,100471.56
2018-12-01T14:17:52.677Z,100468.25
2018-12-01T14:20:20.855Z,100472.19
2018-12-01T14:22:49.681Z,100470.23
2018-12-01T14:25:19.780Z,100469.23
2018-12-01T14:27:59.069Z,100478.75
2018-12-01T14:30:33.788Z,100476.09
2018-12-01T14:33:02.434Z,100473.86
2018-12-01T14:35:34.633Z,100473.41
2018-12-01T14:38:12.219Z,100473.54
2018-12-01T14:40:41.645Z,100469.20
2018-12-01T14:43:09.807Z,100463.97
2018-12-01T14:45:38.145Z,100462.09
2018-12-01T14:48:06.783Z,100470.16
2018-12-01T14:50:34.955Z,100469.59
2018-12-01T14:53:03.106Z,100463.87
2018-12-01T14:55:31.239Z,100455.27
2018-12-01T14:57:59.625Z,100458.36
2018-12-01T15:00:27.713Z,100454.96
2018-12-01T15:02:56.927Z,100455.66
2018-12-01T15:05:26.021Z,100457.14
2018-12-01T15:07:54.097Z,100452.63
2018-12-01T15:10:23.097Z,100455.28
2018-12-01T15:12:51.198Z,100451.55
2018-12-01T15:15:21.430Z,100448.94
2018-12-01T15:17:49.563Z,100441.56
2018-12-01T15:20:19.462Z,100447.62
2018-12-01T15:22:48.630Z,100447.51
2018-12-01T15:25:18.449Z,100443.86
2018-12-01T15:27:46.520Z,100446.87
2018-12-01T15:30:21.596Z,100450.48
2018-12-01T15:33:01.829Z,100448.89
2018-12-01T15:35:36.282Z,100463.33
2018-12-01T15:38:04.447Z,100462.48
2018-12-01T15:40:32.550Z,100465.65
2018-12-01T15:43:00.647Z,100468.58
2018-12-01T15:45:28.809Z,100463.08
2018-12-01T15:47:56.890Z,100459.28
2018-12-01T15:50:24.963Z,100458.19
2018-12-01T15:52:55.043Z,100457.30
2018-12-01T15:55:23.871Z,100451.18
2018-12-01T15:57:52.195Z,100449.89
2018-12-01T16:00:21.297Z,100446.13
2018-12-01T16:02:49.541Z,100438.83
2018-12-01T16:05:25.063Z,100433.30
2018-12-01T16:07:55.742Z,100436.06
2018-12-01T16:10:31.202Z,100433.68
2018-12-01T16:15:57.663Z,100439.16
2018-12-01T16:21:24.143Z,100427.75
2018-12-01T16:24:01.221Z,100428.10
2018-12-01T16:26:39.431Z,100424.20
2018-12-01T16:29:19.918Z,100423.45
2018-12-01T16:32:02.399Z,100422.02
2018-12-01T16:34:39.088Z,100414.80
2018-12-01T16:37:07.969Z,100419.74
2018-12-01T16:39:46.700Z,100417.23
2018-12-01T16:42:16.986Z,100411.50
2018-12-01T16:44:47.360Z,100404.09
2018-12-01T16:47:21.730Z,100397.38
2018-12-01T16:49:57.749Z,100396.33
2018-12-01T16:52:33.642Z,100386.81
2018-12-01T16:55:27.397Z,100389.08
2018-12-01T16:58:12.029Z,100384.98
2018-12-01T17:00:46.726Z,100377.12
2018-12-01T17:03:14.988Z,100377.43
2018-12-01T17:05:46.802Z,100368.48
2018-12-01T17:08:15.028Z,100358.55
2018-12-01T17:10:43.073Z,100360.14
2018-12-01T17:13:11.154Z,100353.86
2018-12-01T17:15:39.550Z,100356.23
2018-12-01T17:18:08.774Z,100353.72
2018-12-01T17:20:36.900Z,100361.86
2018-12-01T17:23:08.562Z,100361.36
2018-12-01T17:25:36.741Z,100348.83
2018-12-01T17:28:06.817Z,100357.02
2018-12-01T17:30:34.983Z,100350.27
2018-12-01T17:33:03.142Z,100349.72
2018-12-01T17:35:31.670Z,100350.01
2018-12-01T17:38:01.017Z,100336.67
2018-12-01T17:40:38.982Z,100339.34
2018-12-01T17:43:08.482Z,100338.27
2018-12-01T17:45:36.570Z,100335.34
2018-12-01T17:48:06.256Z,100339.89
2018-12-01T17:50:34.335Z,100343.84
2018-12-01T17:53:02.477Z,100348.58
2018-12-01T17:55:30.923Z,100352.34
2018-12-01T17:57:59.067Z,100348.53
2018-12-01T18:00:28.315Z,100346.13
2018-12-01T18:02:59.799Z,100346.60
2018-12-01T18:05:33.582Z,100350.55
2018-12-01T18:08:01.706Z,100351.05
2018-12-01T18:10:29.860Z,100360.19
2018-12-01T18:12:57.979Z,100355.59
2018-12-01T18:15:26.075Z,100362.81
2018-12-01T18:17:54.225Z,100359.84
2018-12-01T18:20:22.978Z,100355.94
2018-12-01T18:23:00.662Z,100358.41
2018-12-01T18:25:30.390Z,100352.05
2018-12-01T18:28:04.245Z,100357.81
2018-12-01T18:30:35.715Z,100348.23
2018-12-01T18:33:12.478Z,100340.44
2018-12-01T18:35:40.876Z,100338.70
2018-12-01T18:38:16.423Z,100331.00
2018-12-01T18:40:47.890Z,100331.84
2018-12-01T18:43:18.156Z,100324.94
2018-12-01T18:46:00.311Z,100323.65
2018-12-01T18:48:30.944Z,100323.88
2018-12-01T18:51:16.422Z,100323.55
2018-12-01T18:53:47.913Z,100309.16
2018-12-01T18:56:25.337Z,100310.41
2018-12-01T18:59:01.339Z,100310.95
2018-12-01T19:01:32.633Z,100315.79
2018-12-01T19:04:02.507Z,100322.66
2018-12-01T19:06:31.347Z,100317.61
2018-12-01T19:09:00.188Z,100313.66
2018-12-01T19:11:29.633Z,100311.73
2018-12-01T19:13:57.969Z,100304.23
2018-12-01T19:16:26.875Z,100295.30
2018-12-01T19:18:58.176Z,100293.81
2018-12-01T19:21:27.444Z,100278.73
2018-12-01T19:23:57.975Z,100279.66
2018-12-01T19:26:26.687Z,100279.45
2018-12-01T19:29:00.486Z,100277.04
2018-12-01T19:31:30.185Z,100266.12
2018-12-01T19:34:01.166Z,100262.45
2018-12-01T19:36:32.118Z,100252.81
2018-12-01T19:39:02.554Z,100242.26
2018-12-01T19:41:30.803Z,100234.51
2018-12-01T19:43:59.742Z,100228.23
2018-12-01T19:46:28.521Z,100223.58
2018-12-01T19:49:02.603Z,100221.46
2018-12-01T19:51:31.357Z,100218.85
2018-12-01T19:54:01.996Z,100218.55
2018-12-01T19:56:32.100Z,100218.05
2018-12-01T19:59:01.904Z,100222.66
2018-12-01T20:01:31.942Z,100226.46
2018-12-01T20:04:08.120Z,100223.33
2018-12-01T20:06:39.281Z,100204.13
2018-12-01T20:09:10.911Z,100200.83
2018-12-01T20:11:43.014Z,100196.77
2018-12-01T20:14:14.646Z,100202.58
2018-12-01T20:16:47.002Z,100201.83
2018-12-01T20:19:18.250Z,100201.57
2018-12-01T20:21:57.299Z,100193.50
2018-12-01T20:24:29.981Z,100193.96
2018-12-01T20:26:59.435Z,100197.70
2018-12-01T20:29:28.987Z,100189.19
2018-12-01T20:32:00.930Z,100191.34
2018-12-01T20:34:29.404Z,100180.98
2018-12-01T20:37:01.608Z,100181.25
2018-12-01T20:39:36.758Z,100176.98
2018-12-01T20:42:05.608Z,100174.19
2018-12-01T20:44:34.847Z,100169.13
2018-12-01T20:47:08.663Z,100162.59
2018-12-01T20:49:38.067Z,100159.02
2018-12-01T20:52:07.292Z,100155.80
2018-12-01T20:54:43.491Z,100156.38
2018-12-01T20:57:16.876Z,100152.06
2018-12-01T20:59:45.191Z,100156.63
2018-12-01T21:02:16.935Z,100150.83
2018-12-01T21:04:45.276Z,100145.70
2018-12-01T21:07:17.892Z,100144.11
2018-12-01T21:09:46.481Z,100149.77
2018-12-01T21:12:20.465Z,100141.13
2018-12-01T21:14:51.120Z,100137.06
2018-12-01T21:17:19.815Z,100143.17
2018-12-01T21:19:48.587Z,100133.70
2018-12-01T21:22:19.277Z,100132.50
2018-12-01T21:24:48.797Z,100140.16
2018-12-01T21:27:18.492Z,100127.30
2018-12-01T21:29:47.519Z,100128.37
2018-12-01T21:32:21.080Z,100121.77
2018-12-01T21:34:50.494Z,100120.56
2018-12-01T21:37:19.972Z,100117.91
2018-12-01T21:39:49.709Z,100108.87
2018-12-01T21:42:20.308Z,100111.53
2018-12-01T21:44:49.205Z,100107.97
2018-12-01T21:47:22.265Z,100105.50
2018-12-01T21:55:29.222Z,100095.73
2018-12-01T21:58:01.690Z,100085.56
2018-12-01T22:00:33.151Z,100086.34
2018-12-01T22:03:07.226Z,100078.56
2018-12-01T22:05:40.465Z,100076.66
2018-12-01T22:08:11.833Z,100083.96
2018-12-01T22:10:40.123Z,100075.17
2018-12-01T22:13:08.313Z,100081.70
2018-12-01T22:15:36.832Z,100078.00
2018-12-01T22:18:07.821Z,100072.23
2018-12-01T22:20:39.449Z,100069.93
2018-12-01T22:23:09.437Z,100062.19
2018-12-01T22:25:37.796Z,100064.14
2018-12-01T22:28:08.106Z,100069.43
2018-12-01T22:30:38.441Z,100064.30
2018-12-01T22:33:17.409Z,100068.28
2018-12-01T22:35:47.916Z,100060.28
2018-12-01T22:38:17.265Z,100057.34
2018-12-01T22:40:47.324Z,100054.55
2018-12-01T22:43:18.278Z,100047.32
2018-12-01T22:45:47.896Z,100039.65
2018-12-01T22:48:18.064Z,100037.84
2018-12-01T22:50:51.934Z,100035.59
2018-12-01T22:53:21.764Z,100032.02
2018-12-01T22:55:56.179Z,100030.13
2018-12-01T22:58:30.782Z,100029.05
2018-12-01T23:01:11.480Z,100027.97
2018-12-01T23:03:45.082Z,100026.77
2018-12-01T23:06:14.982Z,100026.96
2018-12-01T23:08:48.444Z,100021.23
2018-12-01T23:11:19.243Z,100018.62
2018-12-01T23:13:48.713Z,100018.48
2018-12-01T23:16:20.535Z,100013.78
2018-12-01T23:18:51.191Z,100017.08
2018-12-01T23:21:25.544Z,100016.45
2018-12-01T23:23:57.647Z,100013.15
2018-12-01T23:26:26.656Z,100005.22
2018-12-01T23:28:59.499Z,100004.59
2018-12-01T23:31:28.690Z,99999.26
2018-12-01T23:34:04.970Z,99994.91
2018-12-01T23:36:34.147Z,99994.46
2018-12-01T23:39:05.890Z,99992.64
2018-12-01T23:41:37.087Z,99991.63
2018-12-01T23:44:06.584Z,99989.92
2018-12-01T23:46:34.842Z,99979.50
2018-12-01T23:49:03.909Z,99974.50
2018-12-01T23:51:36.914Z,99966.88
2018-12-01T23:54:09.101Z,99967.06
2018-12-01T23:56:41.535Z,99964.02
2018-12-01T23:59:10.854Z,99957.09
